sensor_id;sensor_type;location;lat;lon;timestamp;P1;durP1;ratioP1;P2;durP2;ratioP2
44328;SDS011;30039;51.462;6.892;2023-12-20T00:00:14;19.10;;;8.65;;
44328;SDS011;30039;51.462;6.892;2023-12-20T00:03:00;15.85;;;8.30;;
44328;SDS011;30039;51.462;6.892;2023-12-20T00:05:45;14.95;;;7.90;;
44328;SDS011;30039;51.462;6.892;2023-12-20T00:08:31;15.77;;;7.40;;
44328;SDS011;30039;51.462;6.892;2023-12-20T00:11:16;14.68;;;7.05;;
44328;SDS011;30039;51.462;6.892;2023-12-20T00:14:02;15.27;;;7.07;;
44328;SDS011;30039;51.462;6.892;2023-12-20T00:16:48;13.30;;;6.22;;
44328;SDS011;30039;51.462;6.892;2023-12-20T00:19:33;14.10;;;6.50;;
44328;SDS011;30039;51.462;6.892;2023-12-20T00:22:19;13.82;;;5.45;;
44328;SDS011;30039;51.462;6.892;2023-12-20T00:25:05;11.30;;;5.53;;
44328;SDS011;30039;51.462;6.892;2023-12-20T00:27:50;12.35;;;5.95;;
44328;SDS011;30039;51.462;6.892;2023-12-20T00:30:36;13.73;;;6.20;;
44328;SDS011;30039;51.462;6.892;2023-12-20T00:33:21;15.88;;;6.68;;
44328;SDS011;30039;51.462;6.892;2023-12-20T00:36:07;12.68;;;6.75;;
44328;SDS011;30039;51.462;6.892;2023-12-20T00:38:53;12.57;;;6.68;;
44328;SDS011;30039;51.462;6.892;2023-12-20T00:41:39;10.45;;;6.20;;
44328;SDS011;30039;51.462;6.892;2023-12-20T00:44:24;13.38;;;6.20;;
44328;SDS011;30039;51.462;6.892;2023-12-20T00:47:10;13.70;;;6.13;;
44328;SDS011;30039;51.462;6.892;2023-12-20T00:49:56;14.88;;;6.20;;
44328;SDS011;30039;51.462;6.892;2023-12-20T00:52:41;14.15;;;5.68;;
44328;SDS011;30039;51.462;6.892;2023-12-20T00:55:27;13.68;;;5.55;;
44328;SDS011;30039;51.462;6.892;2023-12-20T00:58:12;12.65;;;5.78;;
44328;SDS011;30039;51.462;6.892;2023-12-20T01:01:00;11.52;;;5.97;;
44328;SDS011;30039;51.462;6.892;2023-12-20T01:03:46;11.35;;;5.38;;
44328;SDS011;30039;51.462;6.892;2023-12-20T01:06:31;17.63;;;6.65;;
44328;SDS011;30039;51.462;6.892;2023-12-20T01:09:17;15.27;;;6.15;;
44328;SDS011;30039;51.462;6.892;2023-12-20T01:12:03;9.40;;;4.63;;
44328;SDS011;30039;51.462;6.892;2023-12-20T01:14:49;11.55;;;5.03;;
44328;SDS011;30039;51.462;6.892;2023-12-20T01:17:35;14.98;;;5.20;;
44328;SDS011;30039;51.462;6.892;2023-12-20T01:20:21;13.95;;;5.25;;
44328;SDS011;30039;51.462;6.892;2023-12-20T01:23:06;12.07;;;5.00;;
44328;SDS011;30039;51.462;6.892;2023-12-20T01:25:52;16.38;;;5.18;;
44328;SDS011;30039;51.462;6.892;2023-12-20T01:28:37;12.75;;;4.75;;
44328;SDS011;30039;51.462;6.892;2023-12-20T01:31:23;9.00;;;4.90;;
44328;SDS011;30039;51.462;6.892;2023-12-20T01:34:09;11.82;;;5.20;;
44328;SDS011;30039;51.462;6.892;2023-12-20T01:36:54;11.23;;;5.15;;
44328;SDS011;30039;51.462;6.892;2023-12-20T01:39:40;13.15;;;5.70;;
44328;SDS011;30039;51.462;6.892;2023-12-20T01:42:25;12.23;;;6.32;;
44328;SDS011;30039;51.462;6.892;2023-12-20T01:45:11;18.65;;;5.85;;
44328;SDS011;30039;51.462;6.892;2023-12-20T01:47:57;12.45;;;5.72;;
44328;SDS011;30039;51.462;6.892;2023-12-20T01:50:44;13.15;;;5.60;;
44328;SDS011;30039;51.462;6.892;2023-12-20T01:53:30;9.60;;;4.95;;
44328;SDS011;30039;51.462;6.892;2023-12-20T01:56:18;11.13;;;5.03;;
44328;SDS011;30039;51.462;6.892;2023-12-20T01:59:03;11.60;;;4.75;;
44328;SDS011;30039;51.462;6.892;2023-12-20T02:01:49;12.60;;;4.30;;
44328;SDS011;30039;51.462;6.892;2023-12-20T02:04:35;9.68;;;4.15;;
44328;SDS011;30039;51.462;6.892;2023-12-20T02:07:21;10.52;;;4.18;;
44328;SDS011;30039;51.462;6.892;2023-12-20T02:10:07;9.55;;;4.40;;
44328;SDS011;30039;51.462;6.892;2023-12-20T02:12:53;11.23;;;4.07;;
44328;SDS011;30039;51.462;6.892;2023-12-20T02:15:39;8.82;;;3.80;;
44328;SDS011;30039;51.462;6.892;2023-12-20T02:18:27;10.63;;;3.45;;
44328;SDS011;30039;51.462;6.892;2023-12-20T02:21:13;10.60;;;4.30;;
44328;SDS011;30039;51.462;6.892;2023-12-20T02:23:58;9.32;;;4.05;;
44328;SDS011;30039;51.462;6.892;2023-12-20T02:26:44;13.13;;;4.50;;
44328;SDS011;30039;51.462;6.892;2023-12-20T02:29:29;10.77;;;4.18;;
44328;SDS011;30039;51.462;6.892;2023-12-20T02:32:16;11.60;;;4.53;;
44328;SDS011;30039;51.462;6.892;2023-12-20T02:35:02;12.85;;;4.60;;
44328;SDS011;30039;51.462;6.892;2023-12-20T02:37:48;10.23;;;4.32;;
44328;SDS011;30039;51.462;6.892;2023-12-20T02:40:33;9.52;;;4.55;;
44328;SDS011;30039;51.462;6.892;2023-12-20T02:43:19;12.90;;;5.72;;
44328;SDS011;30039;51.462;6.892;2023-12-20T02:46:05;10.18;;;4.82;;
44328;SDS011;30039;51.462;6.892;2023-12-20T02:48:50;11.82;;;4.70;;
44328;SDS011;30039;51.462;6.892;2023-12-20T02:51:36;13.23;;;5.13;;
44328;SDS011;30039;51.462;6.892;2023-12-20T02:54:23;13.23;;;4.50;;
44328;SDS011;30039;51.462;6.892;2023-12-20T02:57:09;10.10;;;4.35;;
44328;SDS011;30039;51.462;6.892;2023-12-20T02:59:55;13.27;;;4.65;;
44328;SDS011;30039;51.462;6.892;2023-12-20T03:02:40;8.95;;;3.70;;
44328;SDS011;30039;51.462;6.892;2023-12-20T03:05:26;7.80;;;3.88;;
44328;SDS011;30039;51.462;6.892;2023-12-20T03:08:11;13.65;;;3.40;;
44328;SDS011;30039;51.462;6.892;2023-12-20T03:10:59;15.32;;;3.40;;
44328;SDS011;30039;51.462;6.892;2023-12-20T03:13:44;12.90;;;3.40;;
44328;SDS011;30039;51.462;6.892;2023-12-20T03:16:30;10.98;;;3.38;;
44328;SDS011;30039;51.462;6.892;2023-12-20T03:19:17;12.60;;;3.53;;
44328;SDS011;30039;51.462;6.892;2023-12-20T03:22:02;10.25;;;3.00;;
44328;SDS011;30039;51.462;6.892;2023-12-20T03:24:48;6.38;;;2.80;;
44328;SDS011;30039;51.462;6.892;2023-12-20T03:27:34;10.43;;;2.90;;
44328;SDS011;30039;51.462;6.892;2023-12-20T03:30:19;11.93;;;2.60;;
44328;SDS011;30039;51.462;6.892;2023-12-20T03:33:05;8.35;;;2.58;;
44328;SDS011;30039;51.462;6.892;2023-12-20T03:35:50;8.38;;;2.55;;
44328;SDS011;30039;51.462;6.892;2023-12-20T03:38:36;12.35;;;2.90;;
44328;SDS011;30039;51.462;6.892;2023-12-20T03:41:21;10.40;;;2.70;;
44328;SDS011;30039;51.462;6.892;2023-12-20T03:44:07;10.32;;;3.20;;
44328;SDS011;30039;51.462;6.892;2023-12-20T03:46:53;6.78;;;2.20;;
44328;SDS011;30039;51.462;6.892;2023-12-20T03:49:38;6.82;;;2.25;;
44328;SDS011;30039;51.462;6.892;2023-12-20T03:52:24;7.30;;;2.22;;
44328;SDS011;30039;51.462;6.892;2023-12-20T03:55:09;8.57;;;2.30;;
44328;SDS011;30039;51.462;6.892;2023-12-20T03:57:55;8.43;;;2.50;;
44328;SDS011;30039;51.462;6.892;2023-12-20T04:00:40;5.85;;;2.42;;
44328;SDS011;30039;51.462;6.892;2023-12-20T04:03:26;10.23;;;2.35;;
44328;SDS011;30039;51.462;6.892;2023-12-20T04:06:16;7.15;;;2.20;;
44328;SDS011;30039;51.462;6.892;2023-12-20T04:09:01;8.55;;;2.00;;
44328;SDS011;30039;51.462;6.892;2023-12-20T04:11:47;6.72;;;2.42;;
44328;SDS011;30039;51.462;6.892;2023-12-20T04:14:32;11.65;;;2.33;;
44328;SDS011;30039;51.462;6.892;2023-12-20T04:17:18;9.05;;;2.40;;
44328;SDS011;30039;51.462;6.892;2023-12-20T04:20:04;7.68;;;1.75;;
44328;SDS011;30039;51.462;6.892;2023-12-20T04:22:50;18.23;;;3.10;;
44328;SDS011;30039;51.462;6.892;2023-12-20T04:25:36;8.10;;;2.30;;
44328;SDS011;30039;51.462;6.892;2023-12-20T04:28:21;9.52;;;2.08;;
44328;SDS011;30039;51.462;6.892;2023-12-20T04:31:07;10.68;;;2.45;;
44328;SDS011;30039;51.462;6.892;2023-12-20T04:33:53;12.15;;;2.53;;
44328;SDS011;30039;51.462;6.892;2023-12-20T04:36:38;11.13;;;2.55;;
44328;SDS011;30039;51.462;6.892;2023-12-20T04:39:24;7.75;;;2.53;;
44328;SDS011;30039;51.462;6.892;2023-12-20T04:42:09;10.63;;;2.63;;
44328;SDS011;30039;51.462;6.892;2023-12-20T04:44:55;10.15;;;3.03;;
44328;SDS011;30039;51.462;6.892;2023-12-20T04:47:41;8.05;;;2.33;;
44328;SDS011;30039;51.462;6.892;2023-12-20T04:50:27;10.40;;;3.10;;
44328;SDS011;30039;51.462;6.892;2023-12-20T04:53:13;9.82;;;3.00;;
44328;SDS011;30039;51.462;6.892;2023-12-20T04:55:58;14.52;;;3.25;;
44328;SDS011;30039;51.462;6.892;2023-12-20T04:58:44;11.32;;;3.15;;
44328;SDS011;30039;51.462;6.892;2023-12-20T05:01:29;12.75;;;3.00;;
44328;SDS011;30039;51.462;6.892;2023-12-20T05:04:15;9.27;;;3.03;;
44328;SDS011;30039;51.462;6.892;2023-12-20T05:07:00;16.63;;;2.85;;
44328;SDS011;30039;51.462;6.892;2023-12-20T05:09:46;10.10;;;2.83;;
44328;SDS011;30039;51.462;6.892;2023-12-20T05:12:32;7.53;;;2.90;;
44328;SDS011;30039;51.462;6.892;2023-12-20T05:15:17;7.82;;;2.97;;
44328;SDS011;30039;51.462;6.892;2023-12-20T05:18:03;17.05;;;2.83;;
44328;SDS011;30039;51.462;6.892;2023-12-20T05:20:49;13.57;;;3.53;;
44328;SDS011;30039;51.462;6.892;2023-12-20T05:23:35;7.15;;;2.67;;
44328;SDS011;30039;51.462;6.892;2023-12-20T05:26:21;12.40;;;3.05;;
44328;SDS011;30039;51.462;6.892;2023-12-20T05:29:06;8.73;;;3.15;;
44328;SDS011;30039;51.462;6.892;2023-12-20T05:31:52;10.10;;;3.47;;
44328;SDS011;30039;51.462;6.892;2023-12-20T05:34:37;13.25;;;3.45;;
44328;SDS011;30039;51.462;6.892;2023-12-20T05:37:23;10.23;;;3.42;;
44328;SDS011;30039;51.462;6.892;2023-12-20T05:40:09;12.45;;;3.60;;
44328;SDS011;30039;51.462;6.892;2023-12-20T05:42:57;13.98;;;3.45;;
44328;SDS011;30039;51.462;6.892;2023-12-20T05:45:43;15.07;;;3.75;;
44328;SDS011;30039;51.462;6.892;2023-12-20T05:48:28;12.52;;;3.83;;
44328;SDS011;30039;51.462;6.892;2023-12-20T05:51:14;11.23;;;4.03;;
44328;SDS011;30039;51.462;6.892;2023-12-20T05:53:59;10.05;;;3.30;;
44328;SDS011;30039;51.462;6.892;2023-12-20T05:56:45;13.07;;;3.35;;
44328;SDS011;30039;51.462;6.892;2023-12-20T05:59:30;13.85;;;3.33;;
44328;SDS011;30039;51.462;6.892;2023-12-20T06:02:16;16.02;;;3.53;;
44328;SDS011;30039;51.462;6.892;2023-12-20T06:05:03;13.60;;;3.47;;
44328;SDS011;30039;51.462;6.892;2023-12-20T06:07:49;14.05;;;3.95;;
44328;SDS011;30039;51.462;6.892;2023-12-20T06:10:36;8.30;;;3.08;;
44328;SDS011;30039;51.462;6.892;2023-12-20T06:13:21;18.08;;;3.35;;
44328;SDS011;30039;51.462;6.892;2023-12-20T06:16:07;17.65;;;3.80;;
44328;SDS011;30039;51.462;6.892;2023-12-20T06:18:52;11.05;;;3.55;;
44328;SDS011;30039;51.462;6.892;2023-12-20T06:21:38;13.68;;;3.10;;
44328;SDS011;30039;51.462;6.892;2023-12-20T06:24:24;10.50;;;3.78;;
44328;SDS011;30039;51.462;6.892;2023-12-20T06:27:13;12.65;;;3.70;;
44328;SDS011;30039;51.462;6.892;2023-12-20T06:29:58;13.57;;;3.78;;
44328;SDS011;30039;51.462;6.892;2023-12-20T06:32:44;8.48;;;3.42;;
44328;SDS011;30039;51.462;6.892;2023-12-20T06:35:32;10.48;;;3.47;;
44328;SDS011;30039;51.462;6.892;2023-12-20T06:38:18;11.95;;;3.97;;
44328;SDS011;30039;51.462;6.892;2023-12-20T06:41:03;17.30;;;3.60;;
44328;SDS011;30039;51.462;6.892;2023-12-20T06:43:49;15.73;;;4.50;;
44328;SDS011;30039;51.462;6.892;2023-12-20T06:46:35;12.25;;;2.65;;
44328;SDS011;30039;51.462;6.892;2023-12-20T06:49:20;14.65;;;3.72;;
44328;SDS011;30039;51.462;6.892;2023-12-20T06:52:06;11.38;;;3.58;;
44328;SDS011;30039;51.462;6.892;2023-12-20T06:54:52;12.30;;;3.95;;
44328;SDS011;30039;51.462;6.892;2023-12-20T06:57:38;11.02;;;3.75;;
44328;SDS011;30039;51.462;6.892;2023-12-20T07:00:23;12.38;;;3.80;;
44328;SDS011;30039;51.462;6.892;2023-12-20T07:03:09;19.85;;;4.40;;
44328;SDS011;30039;51.462;6.892;2023-12-20T07:05:56;12.55;;;3.30;;
44328;SDS011;30039;51.462;6.892;2023-12-20T07:08:41;14.23;;;3.80;;
44328;SDS011;30039;51.462;6.892;2023-12-20T07:11:27;14.80;;;3.55;;
44328;SDS011;30039;51.462;6.892;2023-12-20T07:14:13;9.20;;;3.35;;
44328;SDS011;30039;51.462;6.892;2023-12-20T07:16:58;12.25;;;3.20;;
44328;SDS011;30039;51.462;6.892;2023-12-20T07:19:44;11.73;;;3.33;;
44328;SDS011;30039;51.462;6.892;2023-12-20T07:22:30;15.30;;;3.15;;
44328;SDS011;30039;51.462;6.892;2023-12-20T07:25:17;14.90;;;3.53;;
44328;SDS011;30039;51.462;6.892;2023-12-20T07:28:03;12.18;;;3.38;;
44328;SDS011;30039;51.462;6.892;2023-12-20T07:30:48;15.63;;;3.45;;
44328;SDS011;30039;51.462;6.892;2023-12-20T07:33:34;12.38;;;3.10;;
44328;SDS011;30039;51.462;6.892;2023-12-20T07:36:20;15.88;;;3.42;;
44328;SDS011;30039;51.462;6.892;2023-12-20T07:39:06;14.18;;;3.13;;
44328;SDS011;30039;51.462;6.892;2023-12-20T07:41:52;12.65;;;3.35;;
44328;SDS011;30039;51.462;6.892;2023-12-20T07:44:37;17.52;;;3.40;;
44328;SDS011;30039;51.462;6.892;2023-12-20T07:47:23;10.10;;;3.47;;
44328;SDS011;30039;51.462;6.892;2023-12-20T07:50:10;10.43;;;4.05;;
44328;SDS011;30039;51.462;6.892;2023-12-20T07:52:56;8.70;;;2.88;;
44328;SDS011;30039;51.462;6.892;2023-12-20T07:55:41;12.30;;;3.10;;
44328;SDS011;30039;51.462;6.892;2023-12-20T07:58:28;16.00;;;3.45;;
44328;SDS011;30039;51.462;6.892;2023-12-20T08:01:15;14.05;;;3.67;;
44328;SDS011;30039;51.462;6.892;2023-12-20T08:04:01;11.32;;;3.30;;
44328;SDS011;30039;51.462;6.892;2023-12-20T08:06:47;12.05;;;3.72;;
44328;SDS011;30039;51.462;6.892;2023-12-20T08:09:32;10.70;;;3.45;;
44328;SDS011;30039;51.462;6.892;2023-12-20T08:12:19;16.23;;;3.60;;
44328;SDS011;30039;51.462;6.892;2023-12-20T08:15:05;14.93;;;3.83;;
44328;SDS011;30039;51.462;6.892;2023-12-20T08:17:51;15.40;;;3.50;;
44328;SDS011;30039;51.462;6.892;2023-12-20T08:20:36;13.43;;;3.38;;
44328;SDS011;30039;51.462;6.892;2023-12-20T08:23:22;18.42;;;3.85;;
44328;SDS011;30039;51.462;6.892;2023-12-20T08:26:08;13.32;;;3.63;;
44328;SDS011;30039;51.462;6.892;2023-12-20T08:28:53;8.60;;;3.20;;
44328;SDS011;30039;51.462;6.892;2023-12-20T08:31:39;10.32;;;3.78;;
44328;SDS011;30039;51.462;6.892;2023-12-20T08:34:25;15.45;;;4.28;;
44328;SDS011;30039;51.462;6.892;2023-12-20T08:37:10;14.27;;;3.42;;
44328;SDS011;30039;51.462;6.892;2023-12-20T08:39:56;16.45;;;3.65;;
44328;SDS011;30039;51.462;6.892;2023-12-20T08:42:41;19.63;;;3.70;;
44328;SDS011;30039;51.462;6.892;2023-12-20T08:45:27;14.23;;;3.30;;
44328;SDS011;30039;51.462;6.892;2023-12-20T08:48:13;17.17;;;3.67;;
44328;SDS011;30039;51.462;6.892;2023-12-20T08:50:58;20.05;;;3.25;;
44328;SDS011;30039;51.462;6.892;2023-12-20T08:53:44;18.27;;;3.72;;
44328;SDS011;30039;51.462;6.892;2023-12-20T08:56:30;12.25;;;3.20;;
44328;SDS011;30039;51.462;6.892;2023-12-20T08:59:16;10.43;;;2.92;;
44328;SDS011;30039;51.462;6.892;2023-12-20T09:02:01;10.77;;;3.22;;
44328;SDS011;30039;51.462;6.892;2023-12-20T09:04:47;12.52;;;3.30;;
44328;SDS011;30039;51.462;6.892;2023-12-20T09:07:33;14.75;;;3.17;;
44328;SDS011;30039;51.462;6.892;2023-12-20T09:10:18;9.95;;;2.58;;
44328;SDS011;30039;51.462;6.892;2023-12-20T09:13:07;13.88;;;3.28;;
44328;SDS011;30039;51.462;6.892;2023-12-20T09:15:54;12.75;;;3.03;;
44328;SDS011;30039;51.462;6.892;2023-12-20T09:18:39;9.45;;;2.75;;
44328;SDS011;30039;51.462;6.892;2023-12-20T09:21:25;11.02;;;2.67;;
44328;SDS011;30039;51.462;6.892;2023-12-20T09:24:11;16.77;;;3.22;;
44328;SDS011;30039;51.462;6.892;2023-12-20T09:26:56;8.13;;;2.45;;
44328;SDS011;30039;51.462;6.892;2023-12-20T09:29:42;11.55;;;3.08;;
44328;SDS011;30039;51.462;6.892;2023-12-20T09:32:28;14.07;;;3.33;;
44328;SDS011;30039;51.462;6.892;2023-12-20T09:35:15;10.35;;;3.03;;
44328;SDS011;30039;51.462;6.892;2023-12-20T09:38:00;12.48;;;3.13;;
44328;SDS011;30039;51.462;6.892;2023-12-20T09:40:46;9.98;;;3.13;;
44328;SDS011;30039;51.462;6.892;2023-12-20T09:43:32;14.93;;;2.95;;
44328;SDS011;30039;51.462;6.892;2023-12-20T09:46:21;12.85;;;2.80;;
44328;SDS011;30039;51.462;6.892;2023-12-20T09:49:08;11.25;;;2.97;;
44328;SDS011;30039;51.462;6.892;2023-12-20T09:51:54;11.20;;;2.95;;
44328;SDS011;30039;51.462;6.892;2023-12-20T09:54:39;13.65;;;2.75;;
44328;SDS011;30039;51.462;6.892;2023-12-20T09:57:26;10.88;;;3.15;;
44328;SDS011;30039;51.462;6.892;2023-12-20T10:00:12;11.82;;;3.00;;
44328;SDS011;30039;51.462;6.892;2023-12-20T10:02:58;13.07;;;2.50;;
44328;SDS011;30039;51.462;6.892;2023-12-20T10:05:44;12.82;;;2.80;;
44328;SDS011;30039;51.462;6.892;2023-12-20T10:08:30;15.30;;;3.58;;
44328;SDS011;30039;51.462;6.892;2023-12-20T10:11:17;11.07;;;2.90;;
44328;SDS011;30039;51.462;6.892;2023-12-20T10:14:03;10.88;;;2.95;;
44328;SDS011;30039;51.462;6.892;2023-12-20T10:16:49;11.80;;;2.63;;
44328;SDS011;30039;51.462;6.892;2023-12-20T10:19:35;9.77;;;2.30;;
44328;SDS011;30039;51.462;6.892;2023-12-20T10:22:21;10.55;;;2.60;;
44328;SDS011;30039;51.462;6.892;2023-12-20T10:25:07;7.28;;;2.67;;
44328;SDS011;30039;51.462;6.892;2023-12-20T10:28:09;8.07;;;2.58;;
44328;SDS011;30039;51.462;6.892;2023-12-20T10:30:55;14.45;;;3.22;;
44328;SDS011;30039;51.462;6.892;2023-12-20T10:33:42;9.07;;;3.10;;
44328;SDS011;30039;51.462;6.892;2023-12-20T10:36:31;10.55;;;2.90;;
44328;SDS011;30039;51.462;6.892;2023-12-20T10:39:17;12.95;;;2.60;;
44328;SDS011;30039;51.462;6.892;2023-12-20T10:42:03;11.85;;;2.92;;
44328;SDS011;30039;51.462;6.892;2023-12-20T10:44:49;11.30;;;2.88;;
44328;SDS011;30039;51.462;6.892;2023-12-20T10:47:36;13.88;;;2.72;;
44328;SDS011;30039;51.462;6.892;2023-12-20T10:50:22;13.48;;;3.13;;
44328;SDS011;30039;51.462;6.892;2023-12-20T10:53:08;14.52;;;2.88;;
44328;SDS011;30039;51.462;6.892;2023-12-20T10:55:55;8.70;;;2.40;;
44328;SDS011;30039;51.462;6.892;2023-12-20T10:58:41;10.25;;;3.10;;
44328;SDS011;30039;51.462;6.892;2023-12-20T11:01:28;13.27;;;3.13;;
44328;SDS011;30039;51.462;6.892;2023-12-20T11:04:15;14.50;;;2.92;;
44328;SDS011;30039;51.462;6.892;2023-12-20T11:07:07;12.85;;;2.88;;
44328;SDS011;30039;51.462;6.892;2023-12-20T11:10:30;7.38;;;2.63;;
44328;SDS011;30039;51.462;6.892;2023-12-20T11:16:11;9.40;;;2.55;;
44328;SDS011;30039;51.462;6.892;2023-12-20T11:19:14;13.57;;;3.08;;
44328;SDS011;30039;51.462;6.892;2023-12-20T11:22:15;12.30;;;3.15;;
44328;SDS011;30039;51.462;6.892;2023-12-20T11:28:21;17.17;;;3.28;;
44328;SDS011;30039;51.462;6.892;2023-12-20T11:31:07;11.48;;;3.00;;
44328;SDS011;30039;51.462;6.892;2023-12-20T11:33:54;16.05;;;3.15;;
44328;SDS011;30039;51.462;6.892;2023-12-20T11:36:58;8.38;;;3.13;;
44328;SDS011;30039;51.462;6.892;2023-12-20T11:39:44;14.68;;;3.28;;
44328;SDS011;30039;51.462;6.892;2023-12-20T11:42:33;9.40;;;3.25;;
44328;SDS011;30039;51.462;6.892;2023-12-20T11:45:23;6.70;;;2.70;;
44328;SDS011;30039;51.462;6.892;2023-12-20T11:48:09;10.95;;;3.30;;
44328;SDS011;30039;51.462;6.892;2023-12-20T11:50:55;15.45;;;3.28;;
44328;SDS011;30039;51.462;6.892;2023-12-20T11:53:41;12.40;;;3.60;;
44328;SDS011;30039;51.462;6.892;2023-12-20T11:56:27;11.70;;;3.38;;
44328;SDS011;30039;51.462;6.892;2023-12-20T11:59:13;7.45;;;2.83;;
44328;SDS011;30039;51.462;6.892;2023-12-20T12:01:59;12.07;;;3.08;;
44328;SDS011;30039;51.462;6.892;2023-12-20T12:04:48;11.93;;;3.35;;
44328;SDS011;30039;51.462;6.892;2023-12-20T12:07:34;10.52;;;3.00;;
44328;SDS011;30039;51.462;6.892;2023-12-20T12:10:20;11.63;;;3.33;;
44328;SDS011;30039;51.462;6.892;2023-12-20T12:13:06;12.38;;;2.88;;
44328;SDS011;30039;51.462;6.892;2023-12-20T12:15:51;11.95;;;3.17;;
44328;SDS011;30039;51.462;6.892;2023-12-20T12:18:38;7.50;;;2.92;;
44328;SDS011;30039;51.462;6.892;2023-12-20T12:21:24;12.82;;;3.28;;
44328;SDS011;30039;51.462;6.892;2023-12-20T12:24:09;17.13;;;3.60;;
44328;SDS011;30039;51.462;6.892;2023-12-20T12:26:57;14.75;;;3.03;;
44328;SDS011;30039;51.462;6.892;2023-12-20T12:29:59;13.45;;;2.60;;
44328;SDS011;30039;51.462;6.892;2023-12-20T12:32:46;15.27;;;2.53;;
44328;SDS011;30039;51.462;6.892;2023-12-20T12:35:31;13.50;;;3.13;;
44328;SDS011;30039;51.462;6.892;2023-12-20T12:38:20;11.27;;;3.20;;
44328;SDS011;30039;51.462;6.892;2023-12-20T12:41:06;16.15;;;3.63;;
44328;SDS011;30039;51.462;6.892;2023-12-20T12:43:52;12.55;;;2.90;;
44328;SDS011;30039;51.462;6.892;2023-12-20T12:46:38;9.20;;;2.95;;
44328;SDS011;30039;51.462;6.892;2023-12-20T12:49:24;10.07;;;3.10;;
44328;SDS011;30039;51.462;6.892;2023-12-20T12:52:09;10.20;;;3.05;;
44328;SDS011;30039;51.462;6.892;2023-12-20T12:54:55;14.88;;;3.40;;
44328;SDS011;30039;51.462;6.892;2023-12-20T12:57:41;10.90;;;3.13;;
44328;SDS011;30039;51.462;6.892;2023-12-20T13:00:26;7.13;;;2.63;;
44328;SDS011;30039;51.462;6.892;2023-12-20T13:03:12;11.85;;;3.20;;
44328;SDS011;30039;51.462;6.892;2023-12-20T13:05:58;10.93;;;3.33;;
44328;SDS011;30039;51.462;6.892;2023-12-20T13:08:44;10.32;;;3.10;;
44328;SDS011;30039;51.462;6.892;2023-12-20T13:11:30;7.80;;;3.08;;
44328;SDS011;30039;51.462;6.892;2023-12-20T13:14:16;12.38;;;3.17;;
44328;SDS011;30039;51.462;6.892;2023-12-20T13:17:02;10.25;;;3.08;;
44328;SDS011;30039;51.462;6.892;2023-12-20T13:19:49;8.95;;;2.97;;
44328;SDS011;30039;51.462;6.892;2023-12-20T13:22:35;9.77;;;2.75;;
44328;SDS011;30039;51.462;6.892;2023-12-20T13:25:21;12.27;;;3.83;;
44328;SDS011;30039;51.462;6.892;2023-12-20T13:28:06;9.82;;;3.33;;
44328;SDS011;30039;51.462;6.892;2023-12-20T13:30:53;8.70;;;3.25;;
44328;SDS011;30039;51.462;6.892;2023-12-20T13:33:39;11.35;;;3.45;;
44328;SDS011;30039;51.462;6.892;2023-12-20T13:36:25;10.13;;;3.65;;
44328;SDS011;30039;51.462;6.892;2023-12-20T13:39:11;10.40;;;3.38;;
44328;SDS011;30039;51.462;6.892;2023-12-20T13:41:57;11.38;;;3.70;;
44328;SDS011;30039;51.462;6.892;2023-12-20T13:44:43;13.65;;;3.05;;
44328;SDS011;30039;51.462;6.892;2023-12-20T13:47:29;5.70;;;2.90;;
44328;SDS011;30039;51.462;6.892;2023-12-20T13:50:15;9.63;;;3.83;;
44328;SDS011;30039;51.462;6.892;2023-12-20T13:53:00;11.10;;;3.90;;
44328;SDS011;30039;51.462;6.892;2023-12-20T13:55:46;13.60;;;3.75;;
44328;SDS011;30039;51.462;6.892;2023-12-20T13:58:32;12.07;;;3.30;;
44328;SDS011;30039;51.462;6.892;2023-12-20T14:01:18;14.02;;;3.70;;
44328;SDS011;30039;51.462;6.892;2023-12-20T14:04:04;10.02;;;3.90;;
44328;SDS011;30039;51.462;6.892;2023-12-20T14:06:49;8.65;;;3.20;;
44328;SDS011;30039;51.462;6.892;2023-12-20T14:09:40;7.00;;;4.03;;
44328;SDS011;30039;51.462;6.892;2023-12-20T14:12:30;10.40;;;3.70;;
44328;SDS011;30039;51.462;6.892;2023-12-20T14:15:17;11.82;;;4.00;;
44328;SDS011;30039;51.462;6.892;2023-12-20T14:18:04;8.38;;;3.55;;
44328;SDS011;30039;51.462;6.892;2023-12-20T14:20:51;11.35;;;3.65;;
44328;SDS011;30039;51.462;6.892;2023-12-20T14:23:37;13.30;;;3.95;;
44328;SDS011;30039;51.462;6.892;2023-12-20T14:26:23;17.45;;;4.38;;
44328;SDS011;30039;51.462;6.892;2023-12-20T14:29:09;12.07;;;4.57;;
44328;SDS011;30039;51.462;6.892;2023-12-20T14:31:54;10.77;;;4.00;;
44328;SDS011;30039;51.462;6.892;2023-12-20T14:34:40;10.85;;;4.60;;
44328;SDS011;30039;51.462;6.892;2023-12-20T14:37:26;16.38;;;4.40;;
44328;SDS011;30039;51.462;6.892;2023-12-20T14:40:12;14.68;;;4.65;;
44328;SDS011;30039;51.462;6.892;2023-12-20T14:43:01;13.27;;;4.63;;
44328;SDS011;30039;51.462;6.892;2023-12-20T14:45:49;11.77;;;4.20;;
44328;SDS011;30039;51.462;6.892;2023-12-20T14:48:36;15.35;;;4.53;;
44328;SDS011;30039;51.462;6.892;2023-12-20T14:51:22;13.20;;;3.92;;
44328;SDS011;30039;51.462;6.892;2023-12-20T14:54:08;11.88;;;3.78;;
44328;SDS011;30039;51.462;6.892;2023-12-20T14:56:55;8.70;;;3.80;;
44328;SDS011;30039;51.462;6.892;2023-12-20T14:59:41;10.00;;;4.05;;
44328;SDS011;30039;51.462;6.892;2023-12-20T15:02:26;9.93;;;3.90;;
44328;SDS011;30039;51.462;6.892;2023-12-20T15:05:12;12.25;;;3.80;;
44328;SDS011;30039;51.462;6.892;2023-12-20T15:07:59;12.32;;;3.75;;
44328;SDS011;30039;51.462;6.892;2023-12-20T15:10:45;8.63;;;3.95;;
44328;SDS011;30039;51.462;6.892;2023-12-20T15:13:30;11.05;;;3.97;;
44328;SDS011;30039;51.462;6.892;2023-12-20T15:16:16;11.75;;;3.90;;
44328;SDS011;30039;51.462;6.892;2023-12-20T15:19:02;14.00;;;4.55;;
44328;SDS011;30039;51.462;6.892;2023-12-20T15:21:48;9.68;;;4.00;;
44328;SDS011;30039;51.462;6.892;2023-12-20T15:24:38;9.13;;;3.50;;
44328;SDS011;30039;51.462;6.892;2023-12-20T15:27:26;12.07;;;4.13;;
44328;SDS011;30039;51.462;6.892;2023-12-20T15:30:12;11.70;;;4.47;;
44328;SDS011;30039;51.462;6.892;2023-12-20T15:32:58;8.48;;;4.10;;
44328;SDS011;30039;51.462;6.892;2023-12-20T15:35:43;16.02;;;5.40;;
44328;SDS011;30039;51.462;6.892;2023-12-20T15:38:29;18.52;;;8.50;;
44328;SDS011;30039;51.462;6.892;2023-12-20T15:41:18;18.42;;;6.30;;
44328;SDS011;30039;51.462;6.892;2023-12-20T15:44:04;11.05;;;5.10;;
44328;SDS011;30039;51.462;6.892;2023-12-20T15:46:51;8.50;;;4.70;;
44328;SDS011;30039;51.462;6.892;2023-12-20T15:49:36;13.70;;;5.13;;
44328;SDS011;30039;51.462;6.892;2023-12-20T15:52:22;12.05;;;5.65;;
44328;SDS011;30039;51.462;6.892;2023-12-20T15:55:07;11.60;;;5.25;;
44328;SDS011;30039;51.462;6.892;2023-12-20T15:57:53;13.77;;;5.95;;
44328;SDS011;30039;51.462;6.892;2023-12-20T16:00:38;12.27;;;5.95;;
44328;SDS011;30039;51.462;6.892;2023-12-20T16:03:24;13.10;;;5.05;;
44328;SDS011;30039;51.462;6.892;2023-12-20T16:06:10;15.10;;;4.93;;
44328;SDS011;30039;51.462;6.892;2023-12-20T16:08:56;14.27;;;4.53;;
44328;SDS011;30039;51.462;6.892;2023-12-20T16:11:42;13.48;;;4.97;;
44328;SDS011;30039;51.462;6.892;2023-12-20T16:14:29;11.60;;;5.63;;
44328;SDS011;30039;51.462;6.892;2023-12-20T16:17:15;10.07;;;4.55;;
44328;SDS011;30039;51.462;6.892;2023-12-20T16:20:02;15.68;;;5.53;;
44328;SDS011;30039;51.462;6.892;2023-12-20T16:22:48;14.27;;;5.20;;
44328;SDS011;30039;51.462;6.892;2023-12-20T16:25:34;15.82;;;6.88;;
44328;SDS011;30039;51.462;6.892;2023-12-20T16:28:23;11.75;;;5.10;;
44328;SDS011;30039;51.462;6.892;2023-12-20T16:31:08;14.93;;;5.65;;
44328;SDS011;30039;51.462;6.892;2023-12-20T16:33:54;17.75;;;6.22;;
44328;SDS011;30039;51.462;6.892;2023-12-20T16:36:48;17.00;;;6.05;;